Terminal Aerodrome Forecast
Issued by NWS

Home | Current Version | Previous Version | Text Only | Print | Product List | Glossary On
Versions: 1 2 3 4 5 6 7 8 9 10 11 12 13 14
215
FTUS43 KEAX 191001 AAA
TAFSTJ
TAF AMD
KSTJ 191001Z 1910/2006 18004KT 6SM BR SCT250
     FM191500 17009KT P6SM SCT020 BKN200
     FM200100 15008KT P6SM BKN020=

USA.gov is the U.S. government's official web portal to all federal, state and local government web resources and services.